Time;durP1;ratioP1;P1;durP2;ratioP2;P2;SDS_P1;SDS_P2;PMS_P1;PMS_P2;Temp;Humidity;BMP_temperature;BMP_pressure;BME280_temperature;BME280_humidity;BME280_pressure;Samples;Min_cycle;Max_cycle;Signal;HPM_P1;HPM_P2
2024/03/21 00:02:06;;;;;;;22.17;11.03;;;;;;;;;;6160196;28;20539;-60
2024/03/21 00:05:11;;;;;;;21.40;10.87;;;;;;;;;;6160096;28;20313;-60
2024/03/21 00:08:13;;;;;;;18.23;10.27;;;;;;;;;;6160116;28;20413;-59
2024/03/21 00:11:16;;;;;;;18.10;9.77;;;;;;;;;;6145272;29;20299;-60
2024/03/21 00:14:17;;;;;;;17.03;9.90;;;;;;;;;;6136084;29;20302;-59
2024/03/21 00:17:22;;;;;;;19.00;10.17;;;;;;;;;;6136458;29;20297;-59
2024/03/21 00:20:24;;;;;;;18.03;10.17;;;;;;;;;;6135861;29;20488;-60
2024/03/21 00:23:26;;;;;;;18.27;10.37;;;;;;;;;;6135811;29;20461;-60
2024/03/21 00:26:29;;;;;;;18.50;10.33;;;;;;;;;;6136269;29;20478;-61
2024/03/21 00:29:31;;;;;;;18.33;10.60;;;;;;;;;;6135722;29;20290;-60
2024/03/21 00:32:36;;;;;;;19.87;10.47;;;;;;;;;;6136074;29;20302;-59
2024/03/21 00:35:37;;;;;;;18.13;10.63;;;;;;;;;;6133846;29;20298;-59
2024/03/21 00:38:40;;;;;;;22.00;11.27;;;;;;;;;;6135861;29;20295;-60
2024/03/21 00:41:44;;;;;;;16.27;9.87;;;;;;;;;;6151450;29;20293;-60
2024/03/21 00:44:45;;;;;;;19.17;9.77;;;;;;;;;;6159906;29;20297;-60
2024/03/21 00:47:50;;;;;;;17.07;10.10;;;;;;;;;;6159867;28;20301;-60
2024/03/21 00:50:52;;;;;;;16.63;9.83;;;;;;;;;;6160188;29;20301;-60
2024/03/21 00:53:56;;;;;;;19.87;10.87;;;;;;;;;;6159348;29;20384;-60
2024/03/21 00:56:59;;;;;;;17.20;9.97;;;;;;;;;;6159907;28;20302;-61
2024/03/21 01:00:02;;;;;;;21.77;11.30;;;;;;;;;;6159381;29;20296;-61
2024/03/21 01:03:09;;;;;;;17.17;10.40;;;;;;;;;;6159649;28;20273;-60
2024/03/21 01:06:10;;;;;;;17.20;9.80;;;;;;;;;;6161290;28;20297;-60
2024/03/21 01:09:14;;;;;;;17.37;10.23;;;;;;;;;;6163800;29;20296;-60
2024/03/21 01:12:17;;;;;;;15.03;9.37;;;;;;;;;;6140112;29;20478;-60
2024/03/21 01:15:20;;;;;;;16.40;10.17;;;;;;;;;;6139843;29;20294;-60
2024/03/21 01:18:34;;;;;;;16.23;10.37;;;;;;;;;;6139742;29;20301;-59
2024/03/21 01:21:37;;;;;;;17.63;10.50;;;;;;;;;;6140189;29;20578;-60
2024/03/21 01:24:39;;;;;;;16.90;10.13;;;;;;;;;;6139444;29;20350;-59
2024/03/21 01:27:42;;;;;;;18.53;10.23;;;;;;;;;;6139750;29;20297;-59
2024/03/21 01:30:44;;;;;;;15.57;10.20;;;;;;;;;;6139850;29;20298;-59
2024/03/21 01:33:49;;;;;;;17.77;10.47;;;;;;;;;;6138868;29;20313;-61
2024/03/21 01:36:53;;;;;;;14.97;9.67;;;;;;;;;;6139733;29;20308;-59
2024/03/21 01:39:55;;;;;;;19.03;10.67;;;;;;;;;;6139388;29;20307;-59
2024/03/21 01:42:59;;;;;;;18.77;11.53;;;;;;;;;;6163446;28;20325;-61
2024/03/21 01:46:19;;;;;;;17.83;10.53;;;;;;;;;;6162934;29;20306;-60
2024/03/21 01:49:23;;;;;;;18.57;9.93;;;;;;;;;;6162887;29;20302;-60
2024/03/21 01:52:26;;;;;;;18.37;10.30;;;;;;;;;;6163530;29;20313;-59
2024/03/21 01:55:29;;;;;;;16.00;9.43;;;;;;;;;;6162543;29;20301;-60
2024/03/21 01:58:32;;;;;;;20.67;10.57;;;;;;;;;;6162681;28;20590;-60
2024/03/21 02:01:34;;;;;;;15.07;10.27;;;;;;;;;;6163170;29;20289;-58
2024/03/21 02:04:38;;;;;;;13.77;9.50;;;;;;;;;;6162609;29;20324;-59
2024/03/21 02:07:41;;;;;;;16.70;9.93;;;;;;;;;;6162048;28;20290;-60
2024/03/21 02:10:44;;;;;;;17.23;10.43;;;;;;;;;;6152157;29;20293;-60
2024/03/21 02:13:47;;;;;;;15.83;9.87;;;;;;;;;;6123155;29;20502;-59
2024/03/21 02:16:49;;;;;;;15.50;9.53;;;;;;;;;;6139048;29;20375;-59
2024/03/21 02:19:53;;;;;;;19.83;10.83;;;;;;;;;;6138118;29;20460;-60
2024/03/21 02:22:57;;;;;;;18.23;10.77;;;;;;;;;;6138358;29;20300;-60
2024/03/21 02:26:00;;;;;;;19.83;10.63;;;;;;;;;;6138850;29;20306;-59
2024/03/21 02:29:04;;;;;;;18.60;10.87;;;;;;;;;;6138711;29;20287;-59
2024/03/21 02:32:07;;;;;;;18.00;10.23;;;;;;;;;;6138485;29;20290;-59
2024/03/21 02:35:09;;;;;;;16.97;10.97;;;;;;;;;;6137073;29;20302;-60
2024/03/21 02:38:14;;;;;;;17.77;10.20;;;;;;;;;;6138021;29;20276;-59
2024/03/21 02:41:16;;;;;;;20.70;10.27;;;;;;;;;;6149931;28;20293;-59
2024/03/21 02:44:19;;;;;;;20.47;10.73;;;;;;;;;;6161599;28;20308;-59
2024/03/21 02:47:21;;;;;;;20.53;10.83;;;;;;;;;;6146276;28;20297;-59
2024/03/21 02:50:24;;;;;;;21.10;11.83;;;;;;;;;;6161642;28;20289;-59
2024/03/21 02:53:27;;;;;;;22.30;11.50;;;;;;;;;;6161060;28;20566;-60
2024/03/21 02:56:30;;;;;;;23.40;11.90;;;;;;;;;;6161878;28;20297;-59
2024/03/21 02:59:32;;;;;;;19.50;10.87;;;;;;;;;;6161266;28;20531;-60
2024/03/21 03:02:36;;;;;;;18.47;10.63;;;;;;;;;;6162008;28;20313;-60
2024/03/21 03:05:41;;;;;;;17.33;10.20;;;;;;;;;;6160311;28;20306;-60
2024/03/21 03:08:45;;;;;;;18.00;10.23;;;;;;;;;;6161313;29;20303;-59
2024/03/21 03:11:47;;;;;;;20.20;11.23;;;;;;;;;;6142271;29;20335;-60
2024/03/21 03:14:50;;;;;;;18.47;11.00;;;;;;;;;;6137308;29;20480;-60
2024/03/21 03:17:52;;;;;;;20.00;11.50;;;;;;;;;;6137206;29;20498;-60
2024/03/21 03:20:55;;;;;;;18.70;10.33;;;;;;;;;;6137613;29;20304;-60
2024/03/21 03:23:58;;;;;;;17.77;10.30;;;;;;;;;;6137164;29;20305;-59
2024/03/21 03:27:01;;;;;;;18.23;10.93;;;;;;;;;;6137582;29;20589;-60
2024/03/21 03:30:03;;;;;;;17.90;10.57;;;;;;;;;;6136352;29;20593;-60
2024/03/21 03:35:33;;;;;;;19.30;11.00;;;;;;;;;;6136289;29;20306;-59
2024/03/21 03:36:30;;;;;;;18.27;11.00;;;;;;;;;;6136715;29;20295;-59
2024/03/21 03:39:34;;;;;;;21.17;11.33;;;;;;;;;;6136134;29;20602;-60
2024/03/21 03:42:37;;;;;;;18.83;11.17;;;;;;;;;;6158754;29;20290;-60
2024/03/21 03:45:41;;;;;;;20.67;11.73;;;;;;;;;;6160199;29;20593;-59
2024/03/21 03:48:44;;;;;;;18.43;10.53;;;;;;;;;;6159830;28;20293;-60
2024/03/21 03:51:47;;;;;;;13.43;9.67;;;;;;;;;;6160282;29;20293;-59
2024/03/21 03:54:50;;;;;;;16.73;10.57;;;;;;;;;;6159677;28;20294;-60
2024/03/21 03:57:53;;;;;;;20.23;11.00;;;;;;;;;;6159685;28;20301;-60
2024/03/21 04:00:55;;;;;;;17.97;10.77;;;;;;;;;;6153461;29;20294;-60
2024/03/21 04:03:58;;;;;;;19.13;11.07;;;;;;;;;;6143833;29;20471;-59
2024/03/21 04:07:00;;;;;;;16.27;10.27;;;;;;;;;;6147881;29;20305;-59
2024/03/21 04:10:05;;;;;;;16.73;10.40;;;;;;;;;;6137440;29;20303;-60
2024/03/21 04:13:08;;;;;;;17.67;10.43;;;;;;;;;;6159071;28;20293;-60
2024/03/21 04:16:15;;;;;;;22.23;10.50;;;;;;;;;;6143913;29;20299;-59
2024/03/21 04:19:17;;;;;;;17.40;10.27;;;;;;;;;;6151066;29;20302;-60
2024/03/21 04:22:19;;;;;;;19.30;11.23;;;;;;;;;;6136309;29;20566;-59
2024/03/21 04:25:23;;;;;;;18.57;11.20;;;;;;;;;;6135910;29;20286;-60
2024/03/21 04:28:26;;;;;;;16.50;10.77;;;;;;;;;;6135256;29;20547;-59
2024/03/21 04:31:27;;;;;;;18.57;10.33;;;;;;;;;;6136456;29;20470;-60
2024/03/21 04:34:30;;;;;;;17.30;10.13;;;;;;;;;;6135879;29;20297;-60
2024/03/21 04:37:33;;;;;;;16.00;9.80;;;;;;;;;;6153005;29;20284;-59
2024/03/21 04:40:37;;;;;;;15.30;9.90;;;;;;;;;;6171800;28;20301;-60
2024/03/21 04:43:40;;;;;;;17.87;9.83;;;;;;;;;;6139973;29;20607;-62
2024/03/21 04:46:43;;;;;;;15.53;9.80;;;;;;;;;;6141362;29;20298;-61
2024/03/21 04:49:47;;;;;;;18.33;9.13;;;;;;;;;;6141008;29;20473;-60
2024/03/21 04:52:49;;;;;;;16.53;10.20;;;;;;;;;;6141294;29;20605;-60
2024/03/21 04:55:53;;;;;;;18.02;13.10;;;;;;;;;;6139188;29;20479;-60
2024/03/21 04:58:55;;;;;;;17.30;10.00;;;;;;;;;;6140417;29;20309;-60
2024/03/21 05:01:57;;;;;;;14.03;9.53;;;;;;;;;;6140977;29;20297;-60
2024/03/21 05:04:59;;;;;;;15.80;9.83;;;;;;;;;;6140490;29;20298;-60
2024/03/21 05:08:02;;;;;;;15.27;9.10;;;;;;;;;;6139962;29;20298;-61
2024/03/21 05:11:06;;;;;;;13.73;9.67;;;;;;;;;;6152267;28;20289;-62
2024/03/21 05:14:08;;;;;;;19.37;9.47;;;;;;;;;;6163596;28;20293;-59
2024/03/21 05:17:14;;;;;;;13.07;9.13;;;;;;;;;;6164114;28;20304;-59
2024/03/21 05:20:16;;;;;;;14.60;9.27;;;;;;;;;;6163676;28;20300;-61
2024/03/21 05:23:19;;;;;;;15.03;9.67;;;;;;;;;;6163248;28;20290;-59
2024/03/21 05:26:23;;;;;;;13.40;8.83;;;;;;;;;;6163895;28;20570;-60
2024/03/21 05:29:26;;;;;;;17.35;12.50;;;;;;;;;;6161836;28;20477;-59
2024/03/21 05:32:27;;;;;;;15.07;9.27;;;;;;;;;;6163589;28;20290;-60
2024/03/21 05:35:30;;;;;;;15.73;10.40;;;;;;;;;;6163171;28;20290;-59
2024/03/21 05:38:32;;;;;;;19.75;13.18;;;;;;;;;;6161340;28;20465;-59
2024/03/21 05:41:36;;;;;;;15.95;10.52;;;;;;;;;;6149006;29;20314;-60
2024/03/21 05:44:38;;;;;;;20.33;14.02;;;;;;;;;;6137533;29;20475;-59
2024/03/21 05:47:41;;;;;;;16.43;10.77;;;;;;;;;;6139747;29;20295;-60
2024/03/21 05:50:43;;;;;;;15.63;10.33;;;;;;;;;;6138930;29;20318;-59
2024/03/21 05:53:46;;;;;;;16.43;9.93;;;;;;;;;;6137953;29;20330;-59
2024/03/21 05:56:50;;;;;;;14.17;9.67;;;;;;;;;;6139294;29;20286;-60
2024/03/21 05:59:55;;;;;;;14.00;9.10;;;;;;;;;;6138930;29;20302;-60
2024/03/21 06:02:56;;;;;;;15.13;9.37;;;;;;;;;;6138826;29;20321;-60
2024/03/21 06:06:00;;;;;;;16.83;9.67;;;;;;;;;;6138964;29;20408;-60
2024/03/21 06:09:05;;;;;;;14.87;9.70;;;;;;;;;;6138539;29;20602;-60
2024/03/21 06:12:09;;;;;;;16.30;9.77;;;;;;;;;;6159820;29;20293;-61
2024/03/21 06:15:11;;;;;;;15.20;9.47;;;;;;;;;;6162368;29;20290;-60
2024/03/21 06:18:15;;;;;;;13.27;9.07;;;;;;;;;;6162112;28;20294;-60
2024/03/21 06:21:18;;;;;;;12.97;8.53;;;;;;;;;;6162700;29;20296;-60
2024/03/21 06:24:19;;;;;;;16.90;10.20;;;;;;;;;;6131980;29;20295;-59
2024/03/21 06:27:24;;;;;;;16.27;9.27;;;;;;;;;;6115160;29;20291;-61
2024/03/21 06:30:27;;;;;;;15.13;9.67;;;;;;;;;;6130109;29;20617;-60
2024/03/21 06:33:30;;;;;;;15.43;9.27;;;;;;;;;;6114526;29;20294;-59
2024/03/21 06:36:33;;;;;;;17.60;9.00;;;;;;;;;;6114587;29;20290;-60
2024/03/21 06:39:35;;;;;;;19.27;10.03;;;;;;;;;;6114688;29;20486;-60
2024/03/21 06:42:39;;;;;;;16.10;9.70;;;;;;;;;;6159866;29;20294;-61
2024/03/21 06:45:42;;;;;;;21.63;10.27;;;;;;;;;;6162514;29;20392;-61
2024/03/21 06:48:44;;;;;;;18.43;9.57;;;;;;;;;;6162562;28;20301;-61
2024/03/21 06:51:47;;;;;;;17.33;9.70;;;;;;;;;;6163027;29;20559;-60
2024/03/21 06:54:49;;;;;;;16.43;9.10;;;;;;;;;;6161842;29;20297;-61
2024/03/21 06:57:58;;;;;;;13.47;9.10;;;;;;;;;;6162400;29;20305;-60
2024/03/21 07:01:00;;;;;;;14.33;8.53;;;;;;;;;;6161752;29;20288;-60
2024/03/21 07:04:03;;;;;;;14.40;9.17;;;;;;;;;;6160937;28;20582;-61
2024/03/21 07:07:04;;;;;;;16.50;8.93;;;;;;;;;;6146178;29;20293;-60
2024/03/21 07:10:08;;;;;;;13.83;8.50;;;;;;;;;;6156930;29;20298;-60
2024/03/21 07:13:11;;;;;;;14.07;9.27;;;;;;;;;;6137006;29;20302;-59
2024/03/21 07:16:17;;;;;;;10.57;8.33;;;;;;;;;;6137796;29;20306;-60
2024/03/21 07:19:19;;;;;;;14.90;8.47;;;;;;;;;;6137060;29;20470;-60
2024/03/21 07:22:22;;;;;;;14.33;8.30;;;;;;;;;;6137483;29;20306;-60
2024/03/21 07:25:24;;;;;;;13.10;8.67;;;;;;;;;;6136787;29;20478;-60
2024/03/21 07:28:28;;;;;;;14.23;8.63;;;;;;;;;;6136735;29;20294;-59
2024/03/21 07:31:30;;;;;;;13.90;8.20;;;;;;;;;;6137314;29;20291;-60
2024/03/21 07:34:32;;;;;;;12.33;8.30;;;;;;;;;;6120680;29;20582;-59
2024/03/21 07:37:35;;;;;;;11.65;7.85;;;;;;;;;;6137107;29;20298;-60
2024/03/21 07:40:37;;;;;;;11.60;7.60;;;;;;;;;;6143008;29;20703;-60
2024/03/21 07:43:41;;;;;;;12.70;8.80;;;;;;;;;;6159947;28;20512;-61
2024/03/21 07:46:43;;;;;;;12.30;8.43;;;;;;;;;;6160540;28;20302;-60
2024/03/21 07:49:46;;;;;;;13.13;8.43;;;;;;;;;;6160142;28;20297;-60
2024/03/21 07:52:48;;;;;;;15.33;8.27;;;;;;;;;;6160762;28;20290;-59
2024/03/21 07:55:50;;;;;;;14.07;8.57;;;;;;;;;;6160088;28;20294;-59
2024/03/21 07:58:54;;;;;;;12.70;8.80;;;;;;;;;;6159825;28;20302;-60
2024/03/21 08:01:57;;;;;;;12.37;7.80;;;;;;;;;;6160803;28;20297;-61
2024/03/21 08:04:58;;;;;;;14.07;8.93;;;;;;;;;;6160177;28;20301;-60
2024/03/21 08:08:01;;;;;;;11.10;8.07;;;;;;;;;;6159816;28;20290;-61
2024/03/21 08:11:03;;;;;;;11.80;8.13;;;;;;;;;;6148542;29;20286;-60
2024/03/21 08:14:07;;;;;;;14.70;9.30;;;;;;;;;;6120144;29;20290;-60
2024/03/21 08:17:10;;;;;;;16.70;8.93;;;;;;;;;;6136936;29;20291;-60
2024/03/21 08:20:12;;;;;;;16.07;9.37;;;;;;;;;;6136027;29;20294;-59
2024/03/21 08:23:15;;;;;;;11.67;8.50;;;;;;;;;;6135933;29;20891;-59
2024/03/21 08:26:19;;;;;;;14.57;9.40;;;;;;;;;;6136538;29;20291;-61
2024/03/21 08:29:22;;;;;;;13.40;9.07;;;;;;;;;;6136099;29;20294;-59
2024/03/21 08:32:25;;;;;;;11.47;8.27;;;;;;;;;;6136492;29;20302;-60
2024/03/21 08:35:26;;;;;;;14.17;8.90;;;;;;;;;;6135884;29;20290;-59
2024/03/21 08:38:31;;;;;;;15.27;9.00;;;;;;;;;;6135360;29;20367;-60
2024/03/21 08:41:33;;;;;;;13.93;8.87;;;;;;;;;;6149980;28;20308;-60
2024/03/21 08:44:37;;;;;;;11.47;8.57;;;;;;;;;;6159495;28;20297;-60
2024/03/21 08:47:39;;;;;;;16.90;9.07;;;;;;;;;;6143395;29;20301;-59
2024/03/21 08:50:44;;;;;;;15.00;8.50;;;;;;;;;;6159089;29;20321;-60
2024/03/21 08:53:46;;;;;;;12.47;8.20;;;;;;;;;;6159858;28;20314;-60
2024/03/21 08:56:48;;;;;;;15.43;8.73;;;;;;;;;;6160974;29;20294;-60
2024/03/21 08:59:51;;;;;;;15.83;8.77;;;;;;;;;;6160085;29;20298;-60
2024/03/21 09:02:54;;;;;;;13.47;8.33;;;;;;;;;;6160378;29;20290;-60
2024/03/21 09:05:56;;;;;;;13.03;8.47;;;;;;;;;;6160250;28;20286;-60
2024/03/21 09:09:01;;;;;;;13.70;8.80;;;;;;;;;;6160286;29;20286;-60
2024/03/21 09:12:03;;;;;;;10.33;7.87;;;;;;;;;;6140984;29;20448;-61
2024/03/21 09:15:10;;;;;;;8.15;7.35;;;;;;;;;;6136332;29;20358;-60
2024/03/21 09:18:13;;;;;;;11.87;7.80;;;;;;;;;;6136227;29;20295;-61
2024/03/21 09:21:15;;;;;;;9.20;7.90;;;;;;;;;;6136986;29;20290;-60
2024/03/21 09:24:18;;;;;;;10.70;8.10;;;;;;;;;;6136253;29;20299;-61
2024/03/21 09:27:19;;;;;;;10.18;7.82;;;;;;;;;;6137789;29;20295;-60
2024/03/21 09:30:24;;;;;;;8.80;7.22;;;;;;;;;;6139719;29;20322;-60
2024/03/21 09:33:26;;;;;;;9.70;7.57;;;;;;;;;;6139929;29;20414;-61
2024/03/21 09:36:29;;;;;;;8.35;7.43;;;;;;;;;;6139975;29;20312;-60
2024/03/21 09:39:31;;;;;;;10.57;7.18;;;;;;;;;;6139145;29;20300;-61
2024/03/21 09:42:33;;;;;;;8.40;7.07;;;;;;;;;;6161859;28;20306;-61
2024/03/21 09:45:39;;;;;;;11.52;7.88;;;;;;;;;;6163510;29;20303;-60
2024/03/21 09:48:41;;;;;;;7.75;6.60;;;;;;;;;;6163236;28;20302;-60
2024/03/21 09:51:44;;;;;;;8.73;6.68;;;;;;;;;;6163881;29;20294;-60
2024/03/21 09:54:46;;;;;;;7.63;6.88;;;;;;;;;;6163620;28;20451;-60
2024/03/21 09:57:49;;;;;;;6.60;5.95;;;;;;;;;;6164196;29;20582;-60
2024/03/21 10:00:52;;;;;;;7.50;6.63;;;;;;;;;;6163084;29;20582;-61
2024/03/21 10:03:57;;;;;;;7.05;6.28;;;;;;;;;;6163382;29;20298;-61
2024/03/21 10:06:59;;;;;;;6.32;5.78;;;;;;;;;;6163562;29;20294;-61
2024/03/21 10:10:02;;;;;;;6.47;5.93;;;;;;;;;;6159161;29;20311;-61
2024/03/21 10:13:05;;;;;;;5.75;5.32;;;;;;;;;;6139133;29;20295;-60
2024/03/21 10:16:10;;;;;;;6.55;5.95;;;;;;;;;;6139392;29;20611;-61
2024/03/21 10:19:13;;;;;;;5.90;5.40;;;;;;;;;;6138577;29;20299;-61
2024/03/21 10:22:17;;;;;;;5.68;5.13;;;;;;;;;;6139082;29;20544;-59
2024/03/21 10:25:20;;;;;;;5.68;5.22;;;;;;;;;;6138469;29;20287;-59
2024/03/21 10:28:22;;;;;;;5.28;4.85;;;;;;;;;;6137902;29;20486;-59
2024/03/21 10:31:26;;;;;;;5.22;4.93;;;;;;;;;;6138434;29;20294;-59
2024/03/21 10:34:30;;;;;;;5.22;4.75;;;;;;;;;;6138132;29;20287;-59
2024/03/21 10:37:34;;;;;;;5.07;4.65;;;;;;;;;;6137897;29;20295;-62
2024/03/21 10:40:37;;;;;;;4.90;4.60;;;;;;;;;;6143512;29;20579;-59
2024/03/21 10:43:42;;;;;;;4.32;4.13;;;;;;;;;;6161068;28;20302;-60
2024/03/21 10:46:47;;;;;;;5.15;4.35;;;;;;;;;;6162448;28;20550;-61
2024/03/21 10:49:50;;;;;;;4.30;3.97;;;;;;;;;;6161429;28;20302;-60
2024/03/21 10:52:55;;;;;;;4.18;3.92;;;;;;;;;;6162487;28;20286;-60
2024/03/21 10:55:56;;;;;;;4.05;3.70;;;;;;;;;;6161533;28;20286;-60
2024/03/21 10:59:00;;;;;;;4.90;4.55;;;;;;;;;;6161475;28;20408;-59
2024/03/21 11:02:04;;;;;;;4.47;4.18;;;;;;;;;;6161629;28;20302;-59
2024/03/21 11:05:10;;;;;;;4.60;4.20;;;;;;;;;;6143687;29;20380;-59
2024/03/21 11:08:26;;;;;;;4.63;4.40;;;;;;;;;;6145328;28;20286;-60
2024/03/21 11:11:29;;;;;;;4.03;3.88;;;;;;;;;;6146366;29;20299;-59
2024/03/21 11:14:32;;;;;;;4.43;4.22;;;;;;;;;;6122254;29;20291;-59
2024/03/21 11:17:37;;;;;;;4.13;3.92;;;;;;;;;;6137566;29;20495;-59
2024/03/21 11:20:40;;;;;;;4.10;3.80;;;;;;;;;;6136871;29;20302;-60
2024/03/21 11:23:43;;;;;;;4.43;3.60;;;;;;;;;;6136976;29;20303;-60
2024/03/21 11:26:46;;;;;;;4.18;3.42;;;;;;;;;;6137474;29;20554;-61
2024/03/21 11:29:49;;;;;;;3.47;3.30;;;;;;;;;;6136915;29;20306;-60
2024/03/21 11:32:52;;;;;;;2.97;2.85;;;;;;;;;;6137430;29;20436;-59
2024/03/21 11:35:57;;;;;;;3.33;3.00;;;;;;;;;;6138054;29;20298;-60
2024/03/21 11:39:00;;;;;;;5.15;2.97;;;;;;;;;;6131239;29;20341;-60
2024/03/21 11:42:02;;;;;;;2.85;2.45;;;;;;;;;;6148765;28;20294;-60
2024/03/21 11:45:06;;;;;;;2.72;2.63;;;;;;;;;;6160848;28;20286;-60
2024/03/21 11:48:12;;;;;;;2.85;2.75;;;;;;;;;;6160983;28;20310;-61
2024/03/21 11:51:15;;;;;;;3.00;2.80;;;;;;;;;;6160898;28;20290;-60
2024/03/21 11:54:18;;;;;;;5.45;3.00;;;;;;;;;;6160873;28;20289;-60
2024/03/21 11:57:20;;;;;;;3.35;3.08;;;;;;;;;;6161153;29;20286;-60
2024/03/21 12:00:23;;;;;;;3.13;2.85;;;;;;;;;;6160587;29;20294;-60
2024/03/21 12:03:26;;;;;;;3.58;2.53;;;;;;;;;;6144475;28;20294;-60
2024/03/21 12:06:29;;;;;;;2.72;2.63;;;;;;;;;;6160844;29;20286;-59
2024/03/21 12:09:30;;;;;;;2.85;2.75;;;;;;;;;;6160244;28;20286;-60
2024/03/21 12:12:33;;;;;;;3.10;3.00;;;;;;;;;;6136561;29;20295;-60
2024/03/21 12:15:35;;;;;;;2.75;2.60;;;;;;;;;;6136256;29;20310;-60
2024/03/21 12:18:39;;;;;;;2.50;2.40;;;;;;;;;;6136273;29;20435;-60
2024/03/21 12:21:41;;;;;;;4.43;2.88;;;;;;;;;;6136510;29;20299;-60
2024/03/21 12:24:44;;;;;;;5.85;3.20;;;;;;;;;;6136253;29;20294;-60
2024/03/21 12:27:47;;;;;;;5.55;2.75;;;;;;;;;;6136704;29;20579;-61
2024/03/21 12:30:50;;;;;;;4.45;2.95;;;;;;;;;;6135985;29;20591;-60
2024/03/21 12:33:56;;;;;;;2.17;2.15;;;;;;;;;;6126128;29;20295;-61
2024/03/21 12:36:58;;;;;;;5.78;2.15;;;;;;;;;;6136762;29;20298;-60
2024/03/21 12:40:01;;;;;;;1.90;1.80;;;;;;;;;;6136914;29;20314;-60
2024/03/21 12:43:04;;;;;;;1.75;1.67;;;;;;;;;;6159573;28;20602;-60
2024/03/21 12:46:07;;;;;;;2.00;1.90;;;;;;;;;;6160314;29;20479;-59
2024/03/21 12:49:11;;;;;;;2.38;2.28;;;;;;;;;;6159780;29;20294;-60
2024/03/21 12:52:14;;;;;;;5.75;2.20;;;;;;;;;;6160208;29;20294;-59
2024/03/21 12:55:16;;;;;;;3.95;2.20;;;;;;;;;;6159689;29;20294;-59
2024/03/21 12:58:19;;;;;;;2.22;1.65;;;;;;;;;;6159813;28;20322;-60
2024/03/21 13:01:21;;;;;;;1.92;1.80;;;;;;;;;;6161608;28;20590;-60
2024/03/21 13:04:25;;;;;;;3.58;1.98;;;;;;;;;;6164041;29;20318;-60
2024/03/21 13:07:28;;;;;;;2.17;2.08;;;;;;;;;;6164492;29;20285;-60
2024/03/21 13:10:32;;;;;;;6.45;2.63;;;;;;;;;;6156144;29;20306;-60
2024/03/21 13:13:34;;;;;;;3.35;2.40;;;;;;;;;;6140568;29;20591;-60
2024/03/21 13:16:37;;;;;;;3.00;2.25;;;;;;;;;;6140520;29;20294;-60
2024/03/21 13:19:40;;;;;;;5.60;2.95;;;;;;;;;;6139236;29;20314;-61
2024/03/21 13:22:46;;;;;;;3.30;2.65;;;;;;;;;;6140310;29;20295;-61
2024/03/21 13:25:49;;;;;;;3.50;3.10;;;;;;;;;;6139621;29;20299;-62
2024/03/21 13:28:52;;;;;;;5.18;3.45;;;;;;;;;;6139669;29;20295;-61
2024/03/21 13:31:53;;;;;;;4.63;3.13;;;;;;;;;;6140174;29;20302;-61
2024/03/21 13:34:58;;;;;;;6.50;3.67;;;;;;;;;;6123645;29;20294;-60
2024/03/21 13:37:59;;;;;;;5.57;3.50;;;;;;;;;;6139184;29;20559;-60
2024/03/21 13:41:02;;;;;;;5.60;3.35;;;;;;;;;;6149263;28;20313;-58
2024/03/21 13:44:05;;;;;;;3.92;3.63;;;;;;;;;;6162623;28;20298;-59
2024/03/21 13:47:07;;;;;;;3.53;3.30;;;;;;;;;;6163419;28;20298;-60
2024/03/21 13:50:12;;;;;;;3.85;3.42;;;;;;;;;;6179076;28;20447;-63
2024/03/21 13:53:14;;;;;;;4.13;3.72;;;;;;;;;;6162979;28;20322;-60
2024/03/21 13:56:17;;;;;;;8.82;3.70;;;;;;;;;;6163110;28;20290;-60
2024/03/21 13:59:20;;;;;;;5.05;3.40;;;;;;;;;;6162516;28;20295;-61
2024/03/21 14:02:24;;;;;;;8.18;3.90;;;;;;;;;;6163217;28;20290;-60
2024/03/21 14:05:28;;;;;;;5.05;3.80;;;;;;;;;;6162555;28;20351;-60
2024/03/21 14:08:30;;;;;;;5.45;3.65;;;;;;;;;;6162638;28;20282;-60
2024/03/21 14:11:34;;;;;;;7.68;3.88;;;;;;;;;;6147022;29;20307;-60
2024/03/21 14:14:36;;;;;;;5.75;3.33;;;;;;;;;;6137873;29;20553;-60
2024/03/21 14:17:41;;;;;;;5.53;3.63;;;;;;;;;;6138872;29;20298;-60
2024/03/21 14:20:45;;;;;;;5.00;3.78;;;;;;;;;;6137933;29;20295;-60
2024/03/21 14:23:48;;;;;;;5.03;3.30;;;;;;;;;;6138076;29;20318;-60
2024/03/21 14:26:50;;;;;;;7.72;3.60;;;;;;;;;;6138683;29;20286;-61
2024/03/21 14:29:53;;;;;;;3.20;3.10;;;;;;;;;;6138095;29;20295;-60
2024/03/21 14:32:55;;;;;;;8.60;4.10;;;;;;;;;;6136944;29;20589;-60
2024/03/21 14:35:59;;;;;;;3.45;3.28;;;;;;;;;;6137913;29;20291;-61
2024/03/21 14:39:03;;;;;;;3.38;3.17;;;;;;;;;;6137671;29;20595;-60
2024/03/21 14:42:06;;;;;;;5.10;3.22;;;;;;;;;;6156339;29;20379;-60
2024/03/21 14:45:09;;;;;;;3.75;3.45;;;;;;;;;;6161459;28;20602;-60
2024/03/21 14:48:11;;;;;;;3.92;3.58;;;;;;;;;;6161429;28;20582;-60
2024/03/21 14:51:16;;;;;;;5.63;4.05;;;;;;;;;;6161632;29;20479;-61
2024/03/21 14:54:18;;;;;;;4.32;4.00;;;;;;;;;;6161438;29;20290;-59
2024/03/21 14:57:20;;;;;;;4.05;3.75;;;;;;;;;;6145817;29;20374;-60
2024/03/21 15:00:23;;;;;;;4.00;3.80;;;;;;;;;;6161394;29;20291;-60
2024/03/21 15:03:25;;;;;;;3.50;3.30;;;;;;;;;;6161275;28;20290;-60
2024/03/21 15:06:29;;;;;;;3.88;3.22;;;;;;;;;;6161711;29;20290;-60
2024/03/21 15:09:31;;;;;;;4.28;3.55;;;;;;;;;;6161218;29;20294;-60
2024/03/21 15:12:34;;;;;;;3.72;3.53;;;;;;;;;;6114054;29;20433;-60
2024/03/21 15:15:37;;;;;;;5.43;3.28;;;;;;;;;;6113655;29;20299;-60
2024/03/21 15:18:39;;;;;;;3.55;3.25;;;;;;;;;;6113537;29;20296;-59
2024/03/21 15:21:43;;;;;;;2.90;2.80;;;;;;;;;;6113465;29;20318;-59
2024/03/21 15:24:46;;;;;;;3.20;2.92;;;;;;;;;;6112105;29;20554;-60
2024/03/21 15:27:48;;;;;;;4.97;3.28;;;;;;;;;;6114066;29;20295;-60
2024/03/21 15:30:51;;;;;;;3.13;2.97;;;;;;;;;;6129711;29;20508;-60
2024/03/21 15:33:54;;;;;;;3.80;2.47;;;;;;;;;;6113090;29;20300;-60
2024/03/21 15:36:57;;;;;;;3.50;3.13;;;;;;;;;;6112959;29;20300;-59
2024/03/21 15:40:00;;;;;;;3.15;2.97;;;;;;;;;;6115412;29;20295;-59
2024/03/21 15:43:02;;;;;;;3.40;3.10;;;;;;;;;;6160148;28;20294;-60
2024/03/21 15:46:05;;;;;;;2.97;2.78;;;;;;;;;;6160962;29;20584;-59
2024/03/21 15:49:07;;;;;;;3.05;2.72;;;;;;;;;;6160372;29;20571;-60
2024/03/21 15:52:11;;;;;;;3.20;3.00;;;;;;;;;;6160550;29;20555;-60
2024/03/21 15:55:13;;;;;;;3.58;2.90;;;;;;;;;;6159941;29;20626;-60
2024/03/21 15:58:16;;;;;;;2.83;2.72;;;;;;;;;;6160001;28;20298;-60
2024/03/21 16:01:18;;;;;;;5.00;2.80;;;;;;;;;;6160319;29;20314;-61
2024/03/21 16:04:21;;;;;;;3.40;3.10;;;;;;;;;;6160043;29;20305;-59
2024/03/21 16:07:26;;;;;;;3.15;2.70;;;;;;;;;;6160398;29;20465;-59
2024/03/21 16:10:28;;;;;;;3.20;3.00;;;;;;;;;;6152358;29;20290;-61
2024/03/21 16:13:30;;;;;;;3.72;3.35;;;;;;;;;;6136546;29;20287;-61
2024/03/21 16:16:33;;;;;;;3.10;2.90;;;;;;;;;;6136639;29;20286;-60
2024/03/21 16:19:35;;;;;;;2.83;2.65;;;;;;;;;;6120788;29;20307;-60
2024/03/21 16:22:39;;;;;;;3.13;2.95;;;;;;;;;;6136683;29;20298;-61
2024/03/21 16:25:42;;;;;;;2.80;2.63;;;;;;;;;;6120062;29;20298;-60
2024/03/21 16:28:45;;;;;;;3.58;3.00;;;;;;;;;;6136149;29;20299;-60
2024/03/21 16:31:47;;;;;;;3.42;3.10;;;;;;;;;;6136412;29;20290;-60
2024/03/21 16:34:50;;;;;;;3.78;3.60;;;;;;;;;;6135914;29;20294;-61
2024/03/21 16:37:54;;;;;;;3.40;3.17;;;;;;;;;;6140647;29;20303;-59
2024/03/21 16:40:57;;;;;;;2.97;2.88;;;;;;;;;;6149475;28;20298;-60
2024/03/21 16:43:59;;;;;;;3.10;3.00;;;;;;;;;;6148035;28;20297;-59
2024/03/21 16:47:02;;;;;;;4.30;3.38;;;;;;;;;;6164865;28;20286;-60
2024/03/21 16:50:05;;;;;;;3.63;3.30;;;;;;;;;;6164097;28;20444;-60
2024/03/21 16:53:09;;;;;;;4.45;3.25;;;;;;;;;;6164307;28;20294;-60
2024/03/21 16:56:11;;;;;;;3.90;3.53;;;;;;;;;;6165028;28;20289;-59
2024/03/21 16:59:14;;;;;;;4.18;2.90;;;;;;;;;;6164582;28;20293;-58
2024/03/21 17:02:17;;;;;;;6.65;3.75;;;;;;;;;;6164918;28;20286;-59
2024/03/21 17:05:20;;;;;;;3.78;3.42;;;;;;;;;;6163924;28;20282;-59
2024/03/21 17:08:24;;;;;;;4.78;3.55;;;;;;;;;;6164410;28;20342;-60
2024/03/21 17:11:27;;;;;;;5.00;3.83;;;;;;;;;;6149390;29;20290;-59
2024/03/21 17:14:31;;;;;;;5.28;4.15;;;;;;;;;;6140107;29;20291;-59
2024/03/21 17:17:33;;;;;;;5.22;4.22;;;;;;;;;;6140598;29;20291;-59
2024/03/21 17:20:36;;;;;;;4.82;4.43;;;;;;;;;;6139768;29;20298;-60
2024/03/21 17:23:39;;;;;;;4.13;3.88;;;;;;;;;;6139966;29;20303;-60
2024/03/21 17:26:42;;;;;;;4.35;4.05;;;;;;;;;;6140049;29;20314;-60
2024/03/21 17:29:44;;;;;;;6.03;4.10;;;;;;;;;;6139590;29;20294;-60
2024/03/21 17:32:47;;;;;;;7.83;5.00;;;;;;;;;;6140011;29;20386;-60
2024/03/21 17:35:51;;;;;;;5.20;4.70;;;;;;;;;;6139462;29;20294;-60
2024/03/21 17:38:55;;;;;;;5.10;4.60;;;;;;;;;;6139604;29;20620;-61
2024/03/21 17:41:59;;;;;;;11.27;5.60;;;;;;;;;;6156644;29;20253;-60
2024/03/21 17:45:00;;;;;;;7.65;5.20;;;;;;;;;;6163281;29;20467;-60
2024/03/21 17:48:04;;;;;;;11.07;4.95;;;;;;;;;;6161671;28;20290;-59
2024/03/21 17:51:05;;;;;;;6.97;4.93;;;;;;;;;;6163096;28;20469;-59
2024/03/21 17:54:10;;;;;;;5.93;4.55;;;;;;;;;;6162655;29;20310;-59
2024/03/21 17:57:12;;;;;;;5.97;4.57;;;;;;;;;;6163204;29;20303;-60
2024/03/21 18:00:15;;;;;;;5.17;4.53;;;;;;;;;;6162899;29;20574;-60
2024/03/21 18:03:21;;;;;;;6.13;4.80;;;;;;;;;;6162216;28;20298;-60
2024/03/21 18:06:23;;;;;;;5.18;4.53;;;;;;;;;;6162974;29;20290;-60